sensor_id;sensor_type;location;lat;lon;timestamp;pressure;altitude;pressure_sealevel;temperature;humidity
77288;BME280;66345;42.694;23.346;2023-03-14T00:01:57;95764.47;;;4.04;45.48
77288;BME280;66345;42.694;23.346;2023-03-14T00:04:22;95758.94;;;3.97;45.70
77288;BME280;66345;42.694;23.346;2023-03-14T00:06:47;95750.53;;;3.94;46.01
77288;BME280;66345;42.694;23.346;2023-03-14T00:09:15;95740.59;;;3.78;46.04
77288;BME280;66345;42.694;23.346;2023-03-14T00:11:41;95740.78;;;3.67;46.68
77288;BME280;66345;42.694;23.346;2023-03-14T00:14:07;95741.88;;;3.74;46.61
77288;BME280;66345;42.694;23.346;2023-03-14T00:16:34;95735.50;;;3.76;46.74
77288;BME280;66345;42.694;23.346;2023-03-14T00:18:59;95735.66;;;3.75;46.62
77288;BME280;66345;42.694;23.346;2023-03-14T00:21:25;95730.69;;;3.62;46.42
77288;BME280;66345;42.694;23.346;2023-03-14T00:23:51;95722.97;;;3.51;47.08
77288;BME280;66345;42.694;23.346;2023-03-14T00:26:18;95723.81;;;3.42;47.82
77288;BME280;66345;42.694;23.346;2023-03-14T00:28:47;95713.03;;;3.45;47.19
77288;BME280;66345;42.694;23.346;2023-03-14T00:31:14;95729.06;;;3.42;47.66
77288;BME280;66345;42.694;23.346;2023-03-14T00:33:43;95710.25;;;3.46;48.29
77288;BME280;66345;42.694;23.346;2023-03-14T00:36:12;95716.47;;;3.45;47.37
77288;BME280;66345;42.694;23.346;2023-03-14T00:38:39;95698.81;;;3.47;48.02
77288;BME280;66345;42.694;23.346;2023-03-14T00:41:12;95710.53;;;3.53;47.61
77288;BME280;66345;42.694;23.346;2023-03-14T00:43:38;95699.09;;;3.34;47.76
77288;BME280;66345;42.694;23.346;2023-03-14T00:46:04;95696.47;;;3.25;49.03
77288;BME280;66345;42.694;23.346;2023-03-14T00:48:30;95698.56;;;3.21;48.89
77288;BME280;66345;42.694;23.346;2023-03-14T00:50:55;95699.38;;;3.22;49.00
77288;BME280;66345;42.694;23.346;2023-03-14T00:53:21;95700.47;;;3.29;48.78
77288;BME280;66345;42.694;23.346;2023-03-14T00:55:47;95691.09;;;3.17;48.97
77288;BME280;66345;42.694;23.346;2023-03-14T00:58:15;95699.22;;;3.23;48.63
77288;BME280;66345;42.694;23.346;2023-03-14T01:00:41;95701.72;;;3.15;49.24
77288;BME280;66345;42.694;23.346;2023-03-14T01:03:08;95681.19;;;3.11;48.83
77288;BME280;66345;42.694;23.346;2023-03-14T01:05:33;95686.00;;;3.15;49.38
77288;BME280;66345;42.694;23.346;2023-03-14T01:08:01;95689.19;;;3.19;49.51
77288;BME280;66345;42.694;23.346;2023-03-14T01:10:28;95692.22;;;3.04;49.72
77288;BME280;66345;42.694;23.346;2023-03-14T01:12:53;95687.22;;;3.01;50.36
77288;BME280;66345;42.694;23.346;2023-03-14T01:15:19;95677.44;;;2.94;50.42
77288;BME280;66345;42.694;23.346;2023-03-14T01:17:45;95672.22;;;3.03;50.30
77288;BME280;66345;42.694;23.346;2023-03-14T01:20:12;95670.94;;;3.08;49.89
77288;BME280;66345;42.694;23.346;2023-03-14T01:22:39;95660.31;;;3.09;50.14
77288;BME280;66345;42.694;23.346;2023-03-14T01:25:06;95661.56;;;3.24;49.19
77288;BME280;66345;42.694;23.346;2023-03-14T01:27:33;95666.66;;;3.16;49.94
77288;BME280;66345;42.694;23.346;2023-03-14T01:29:58;95659.22;;;3.21;49.61
77288;BME280;66345;42.694;23.346;2023-03-14T01:32:24;95649.97;;;3.08;50.01
77288;BME280;66345;42.694;23.346;2023-03-14T01:34:50;95658.13;;;3.14;49.47
77288;BME280;66345;42.694;23.346;2023-03-14T01:37:16;95648.72;;;3.02;50.01
77288;BME280;66345;42.694;23.346;2023-03-14T01:39:41;95643.78;;;2.99;49.67
77288;BME280;66345;42.694;23.346;2023-03-14T01:42:07;95654.41;;;3.07;50.07
77288;BME280;66345;42.694;23.346;2023-03-14T01:45:04;95652.47;;;3.09;50.15
77288;BME280;66345;42.694;23.346;2023-03-14T01:47:30;95643.22;;;3.15;51.99
77288;BME280;66345;42.694;23.346;2023-03-14T01:50:03;95643.09;;;2.87;52.77
77288;BME280;66345;42.694;23.346;2023-03-14T01:52:32;95634.69;;;3.03;51.58
77288;BME280;66345;42.694;23.346;2023-03-14T01:55:14;95640.03;;;3.01;52.01
77288;BME280;66345;42.694;23.346;2023-03-14T01:57:48;95630.56;;;2.81;52.96
77288;BME280;66345;42.694;23.346;2023-03-14T02:00:20;95637.41;;;2.43;53.51
77288;BME280;66345;42.694;23.346;2023-03-14T02:02:49;95635.56;;;2.34;54.42
77288;BME280;66345;42.694;23.346;2023-03-14T02:05:18;95638.59;;;2.30;55.08
77288;BME280;66345;42.694;23.346;2023-03-14T02:07:49;95642.28;;;2.17;55.52
77288;BME280;66345;42.694;23.346;2023-03-14T02:10:17;95634.13;;;2.11;55.75
77288;BME280;66345;42.694;23.346;2023-03-14T02:12:47;95631.66;;;2.09;56.94
77288;BME280;66345;42.694;23.346;2023-03-14T02:15:14;95646.38;;;2.01;56.35
77288;BME280;66345;42.694;23.346;2023-03-14T02:17:41;95640.34;;;1.79;56.91
77288;BME280;66345;42.694;23.346;2023-03-14T02:20:45;95621.81;;;1.82;56.45
77288;BME280;66345;42.694;23.346;2023-03-14T02:23:15;95629.84;;;2.00;55.61
77288;BME280;66345;42.694;23.346;2023-03-14T02:25:54;95627.28;;;2.19;54.81
77288;BME280;66345;42.694;23.346;2023-03-14T02:28:22;95625.28;;;2.42;54.16
77288;BME280;66345;42.694;23.346;2023-03-14T02:30:47;95625.28;;;2.52;53.61
77288;BME280;66345;42.694;23.346;2023-03-14T02:33:16;95625.53;;;2.49;53.01
77288;BME280;66345;42.694;23.346;2023-03-14T02:36:02;95625.13;;;2.54;53.39
77288;BME280;66345;42.694;23.346;2023-03-14T02:39:08;95637.97;;;2.66;52.67
77288;BME280;66345;42.694;23.346;2023-03-14T02:41:35;95637.97;;;2.66;53.17
77288;BME280;66345;42.694;23.346;2023-03-14T02:44:01;95647.34;;;2.78;52.35
77288;BME280;66345;42.694;23.346;2023-03-14T02:46:26;95640.22;;;2.81;52.56
77288;BME280;66345;42.694;23.346;2023-03-14T02:48:57;95642.97;;;2.89;51.36
77288;BME280;66345;42.694;23.346;2023-03-14T02:51:23;95634.25;;;2.69;52.84
77288;BME280;66345;42.694;23.346;2023-03-14T02:53:51;95643.50;;;2.73;53.07
77288;BME280;66345;42.694;23.346;2023-03-14T02:56:16;95637.13;;;2.46;54.06
77288;BME280;66345;42.694;23.346;2023-03-14T02:58:42;95645.63;;;2.29;54.71
77288;BME280;66345;42.694;23.346;2023-03-14T03:01:08;95641.63;;;2.25;55.30
77288;BME280;66345;42.694;23.346;2023-03-14T03:03:35;95650.34;;;2.35;54.39
77288;BME280;66345;42.694;23.346;2023-03-14T03:06:00;95642.72;;;2.22;54.88
77288;BME280;66345;42.694;23.346;2023-03-14T03:08:27;95645.50;;;2.31;55.24
77288;BME280;66345;42.694;23.346;2023-03-14T03:10:54;95641.53;;;2.36;54.31
77288;BME280;66345;42.694;23.346;2023-03-14T03:13:21;95648.13;;;2.40;54.78
77288;BME280;66345;42.694;23.346;2023-03-14T03:15:46;95635.94;;;2.10;55.82
77288;BME280;66345;42.694;23.346;2023-03-14T03:18:12;95634.19;;;2.20;55.80
77288;BME280;66345;42.694;23.346;2023-03-14T03:20:37;95642.75;;;2.32;55.37
77288;BME280;66345;42.694;23.346;2023-03-14T03:23:04;95632.25;;;2.32;55.92
77288;BME280;66345;42.694;23.346;2023-03-14T03:25:30;95638.03;;;2.26;55.66
77288;BME280;66345;42.694;23.346;2023-03-14T03:27:56;95629.88;;;2.10;55.82
77288;BME280;66345;42.694;23.346;2023-03-14T03:30:21;95636.66;;;2.22;55.73
77288;BME280;66345;42.694;23.346;2023-03-14T03:32:47;95640.09;;;2.13;56.76
77288;BME280;66345;42.694;23.346;2023-03-14T03:35:14;95639.66;;;2.08;57.05
77288;BME280;66345;42.694;23.346;2023-03-14T03:37:40;95626.16;;;2.12;57.15
77288;BME280;66345;42.694;23.346;2023-03-14T03:40:06;95633.75;;;2.15;57.21
77288;BME280;66345;42.694;23.346;2023-03-14T03:42:32;95632.31;;;2.02;57.46
77288;BME280;66345;42.694;23.346;2023-03-14T03:44:59;95628.22;;;2.09;57.84
77288;BME280;66345;42.694;23.346;2023-03-14T03:47:27;95646.38;;;2.01;57.97
77288;BME280;66345;42.694;23.346;2023-03-14T03:49:53;95653.41;;;2.00;58.35
77288;BME280;66345;42.694;23.346;2023-03-14T03:52:18;95644.44;;;2.03;57.80
77288;BME280;66345;42.694;23.346;2023-03-14T03:54:44;95648.28;;;1.99;58.31
77288;BME280;66345;42.694;23.346;2023-03-14T03:57:10;95642.53;;;2.05;58.17
77288;BME280;66345;42.694;23.346;2023-03-14T03:59:35;95644.44;;;2.03;58.08
77288;BME280;66345;42.694;23.346;2023-03-14T04:02:01;95641.25;;;1.89;59.16
77288;BME280;66345;42.694;23.346;2023-03-14T04:04:26;95648.78;;;1.83;58.51
77288;BME280;66345;42.694;23.346;2023-03-14T04:06:52;95646.22;;;1.62;59.65
77288;BME280;66345;42.694;23.346;2023-03-14T04:09:17;95655.22;;;1.48;59.64
77288;BME280;66345;42.694;23.346;2023-03-14T04:11:42;95636.91;;;1.48;59.51
77288;BME280;66345;42.694;23.346;2023-03-14T04:14:08;95653.38;;;1.60;59.36
77288;BME280;66345;42.694;23.346;2023-03-14T04:16:33;95639.78;;;1.45;60.00
77288;BME280;66345;42.694;23.346;2023-03-14T04:18:59;95643.22;;;1.04;61.60
77288;BME280;66345;42.694;23.346;2023-03-14T04:21:26;95646.03;;;1.12;61.16
77288;BME280;66345;42.694;23.346;2023-03-14T04:23:51;95643.78;;;1.28;60.26
77288;BME280;66345;42.694;23.346;2023-03-14T04:26:17;95645.25;;;1.42;60.14
77288;BME280;66345;42.694;23.346;2023-03-14T04:28:44;95636.16;;;1.36;60.15
77288;BME280;66345;42.694;23.346;2023-03-14T04:31:11;95635.53;;;1.23;61.20
77288;BME280;66345;42.694;23.346;2023-03-14T04:33:37;95624.66;;;1.49;60.32
77288;BME280;66345;42.694;23.346;2023-03-14T04:36:04;95626.66;;;1.66;58.74
77288;BME280;66345;42.694;23.346;2023-03-14T04:38:31;95621.97;;;1.60;59.20
77288;BME280;66345;42.694;23.346;2023-03-14T04:40:58;95613.81;;;1.53;59.76
77288;BME280;66345;42.694;23.346;2023-03-14T04:43:24;95613.56;;;1.56;59.72
77288;BME280;66345;42.694;23.346;2023-03-14T04:45:52;95609.31;;;1.65;59.55
77288;BME280;66345;42.694;23.346;2023-03-14T04:48:20;95602.69;;;1.51;59.83
77288;BME280;66345;42.694;23.346;2023-03-14T04:50:49;95608.78;;;1.61;59.28
77288;BME280;66345;42.694;23.346;2023-03-14T04:53:15;95606.63;;;1.76;59.25
77288;BME280;66345;42.694;23.346;2023-03-14T04:55:41;95604.69;;;1.78;58.99
77288;BME280;66345;42.694;23.346;2023-03-14T04:58:06;95600.25;;;1.69;59.34
77288;BME280;66345;42.694;23.346;2023-03-14T05:00:32;95602.34;;;1.75;59.37
77288;BME280;66345;42.694;23.346;2023-03-14T05:02:57;95603.03;;;1.77;58.98
77288;BME280;66345;42.694;23.346;2023-03-14T05:05:23;95611.38;;;1.92;58.65
77288;BME280;66345;42.694;23.346;2023-03-14T05:07:49;95600.50;;;1.97;57.68
77288;BME280;66345;42.694;23.346;2023-03-14T05:10:14;95604.78;;;1.98;58.37
77288;BME280;66345;42.694;23.346;2023-03-14T05:12:40;95586.72;;;1.94;57.74
77288;BME280;66345;42.694;23.346;2023-03-14T05:15:06;95593.50;;;2.07;58.04
77288;BME280;66345;42.694;23.346;2023-03-14T05:17:35;95600.81;;;2.13;57.73
77288;BME280;66345;42.694;23.346;2023-03-14T05:20:02;95598.91;;;2.25;56.95
77288;BME280;66345;42.694;23.346;2023-03-14T05:22:33;95601.34;;;2.07;57.16
77288;BME280;66345;42.694;23.346;2023-03-14T05:24:58;95598.31;;;2.02;58.26
77288;BME280;66345;42.694;23.346;2023-03-14T05:27:24;95589.22;;;2.06;57.96
77288;BME280;66345;42.694;23.346;2023-03-14T05:29:49;95595.47;;;2.34;57.14
77288;BME280;66345;42.694;23.346;2023-03-14T05:32:15;95593.72;;;2.44;56.13
77288;BME280;66345;42.694;23.346;2023-03-14T05:34:40;95593.84;;;2.52;56.48
77288;BME280;66345;42.694;23.346;2023-03-14T05:37:06;95594.69;;;2.62;56.69
77288;BME280;66345;42.694;23.346;2023-03-14T05:39:32;95589.44;;;2.91;55.83
77288;BME280;66345;42.694;23.346;2023-03-14T05:41:57;95595.50;;;2.92;55.87
77288;BME280;66345;42.694;23.346;2023-03-14T05:44:23;95594.66;;;3.11;54.95
77288;BME280;66345;42.694;23.346;2023-03-14T05:46:48;95591.22;;;3.00;54.81
77288;BME280;66345;42.694;23.346;2023-03-14T05:49:14;95584.75;;;2.85;55.69
77288;BME280;66345;42.694;23.346;2023-03-14T05:51:39;95597.97;;;3.13;54.71
77288;BME280;66345;42.694;23.346;2023-03-14T05:54:05;95590.44;;;3.47;53.62
77288;BME280;66345;42.694;23.346;2023-03-14T05:56:30;95594.63;;;3.30;53.80
77288;BME280;66345;42.694;23.346;2023-03-14T05:58:56;95587.50;;;3.59;53.33
77288;BME280;66345;42.694;23.346;2023-03-14T06:01:21;95591.16;;;3.76;53.07
77288;BME280;66345;42.694;23.346;2023-03-14T06:03:47;95590.13;;;3.59;52.90
77288;BME280;66345;42.694;23.346;2023-03-14T06:06:12;95573.84;;;3.93;52.30
77288;BME280;66345;42.694;23.346;2023-03-14T06:08:37;95576.06;;;5.22;49.00
77288;BME280;66345;42.694;23.346;2023-03-14T06:11:03;95566.88;;;6.95;44.43
77288;BME280;66345;42.694;23.346;2023-03-14T06:13:29;95565.66;;;7.47;42.59
77288;BME280;66345;42.694;23.346;2023-03-14T06:15:54;95567.16;;;7.58;42.28
77288;BME280;66345;42.694;23.346;2023-03-14T06:18:20;95551.03;;;8.31;40.90
77288;BME280;66345;42.694;23.346;2023-03-14T06:20:45;95570.06;;;7.79;41.03
77288;BME280;66345;42.694;23.346;2023-03-14T06:23:11;95559.56;;;9.41;38.50
77288;BME280;66345;42.694;23.346;2023-03-14T06:25:36;95560.47;;;10.88;35.38
77288;BME280;66345;42.694;23.346;2023-03-14T06:28:02;95559.53;;;11.38;34.28
77288;BME280;66345;42.694;23.346;2023-03-14T06:30:28;95557.09;;;12.27;32.53
77288;BME280;66345;42.694;23.346;2023-03-14T06:32:54;95563.88;;;11.46;33.93
77288;BME280;66345;42.694;23.346;2023-03-14T06:35:21;95563.16;;;12.14;33.04
77288;BME280;66345;42.694;23.346;2023-03-14T06:37:46;95556.59;;;13.52;30.70
77288;BME280;66345;42.694;23.346;2023-03-14T06:40:12;95557.00;;;13.23;31.15
77288;BME280;66345;42.694;23.346;2023-03-14T06:42:42;95543.28;;;15.58;27.45
77288;BME280;66345;42.694;23.346;2023-03-14T06:45:09;95542.75;;;15.11;27.76
77288;BME280;66345;42.694;23.346;2023-03-14T06:47:35;95546.72;;;13.99;28.81
77288;BME280;66345;42.694;23.346;2023-03-14T06:50:00;95563.00;;;11.38;33.50
77288;BME280;66345;42.694;23.346;2023-03-14T06:52:25;95559.50;;;10.52;35.23
77288;BME280;66345;42.694;23.346;2023-03-14T06:54:51;95557.69;;;9.27;37.30
77288;BME280;66345;42.694;23.346;2023-03-14T06:57:16;95541.84;;;11.52;33.79
77288;BME280;66345;42.694;23.346;2023-03-14T06:59:42;95537.50;;;13.16;31.50
77288;BME280;66345;42.694;23.346;2023-03-14T07:02:10;95523.53;;;13.93;29.28
77288;BME280;66345;42.694;23.346;2023-03-14T07:04:38;95525.44;;;13.40;30.23
77288;BME280;66345;42.694;23.346;2023-03-14T07:07:03;95520.28;;;13.84;29.56
77288;BME280;66345;42.694;23.346;2023-03-14T07:09:31;95504.91;;;16.32;26.08
77288;BME280;66345;42.694;23.346;2023-03-14T07:11:56;95506.97;;;16.49;25.92
77288;BME280;66345;42.694;23.346;2023-03-14T07:14:21;95506.22;;;16.78;24.60
77288;BME280;66345;42.694;23.346;2023-03-14T07:16:47;95506.69;;;17.29;24.45
77288;BME280;66345;42.694;23.346;2023-03-14T07:19:12;95513.69;;;17.30;24.56
77288;BME280;66345;42.694;23.346;2023-03-14T07:21:38;95521.16;;;15.19;26.96
77288;BME280;66345;42.694;23.346;2023-03-14T07:24:03;95519.03;;;15.28;26.60
77288;BME280;66345;42.694;23.346;2023-03-14T07:26:29;95506.22;;;17.85;22.80
77288;BME280;66345;42.694;23.346;2023-03-14T07:28:54;95498.44;;;18.36;22.26
77288;BME280;66345;42.694;23.346;2023-03-14T07:31:20;95505.97;;;18.10;22.56
77288;BME280;66345;42.694;23.346;2023-03-14T07:33:45;95502.25;;;18.75;21.63
77288;BME280;66345;42.694;23.346;2023-03-14T07:36:11;95499.00;;;19.18;20.87
77288;BME280;66345;42.694;23.346;2023-03-14T07:38:36;95498.41;;;18.99;21.26
77288;BME280;66345;42.694;23.346;2023-03-14T07:41:06;95501.69;;;19.18;20.95
77288;BME280;66345;42.694;23.346;2023-03-14T07:43:32;95503.00;;;18.35;21.66
77288;BME280;66345;42.694;23.346;2023-03-14T07:45:58;95496.53;;;19.79;20.54
77288;BME280;66345;42.694;23.346;2023-03-14T07:48:23;95490.47;;;20.05;19.71
77288;BME280;66345;42.694;23.346;2023-03-14T07:50:52;95483.06;;;19.95;19.66
77288;BME280;66345;42.694;23.346;2023-03-14T07:53:18;95481.94;;;20.52;19.65
77288;BME280;66345;42.694;23.346;2023-03-14T07:55:44;95486.63;;;20.01;20.05
77288;BME280;66345;42.694;23.346;2023-03-14T07:58:09;95473.97;;;21.70;18.25
77288;BME280;66345;42.694;23.346;2023-03-14T08:00:35;95479.88;;;22.52;17.68
77288;BME280;66345;42.694;23.346;2023-03-14T08:03:00;95485.53;;;23.08;16.94
77288;BME280;66345;42.694;23.346;2023-03-14T08:05:26;95479.13;;;22.09;17.00
77288;BME280;66345;42.694;23.346;2023-03-14T08:07:51;95477.28;;;21.82;18.08
77288;BME280;66345;42.694;23.346;2023-03-14T08:10:16;95491.41;;;19.15;20.07
77288;BME280;66345;42.694;23.346;2023-03-14T08:12:58;95486.44;;;18.38;20.82
77288;BME280;66345;42.694;23.346;2023-03-14T08:15:24;95466.88;;;21.05;18.37
77288;BME280;66345;42.694;23.346;2023-03-14T08:17:50;95475.09;;;20.88;18.71
77288;BME280;66345;42.694;23.346;2023-03-14T08:20:21;95474.19;;;20.39;18.70
77288;BME280;66345;42.694;23.346;2023-03-14T08:22:47;95465.47;;;24.31;15.63
77288;BME280;66345;42.694;23.346;2023-03-14T08:25:13;95475.84;;;24.03;15.34
77288;BME280;66345;42.694;23.346;2023-03-14T08:27:39;95467.25;;;22.67;16.45
77288;BME280;66345;42.694;23.346;2023-03-14T08:30:11;95460.41;;;22.50;16.78
77288;BME280;66345;42.694;23.346;2023-03-14T08:32:37;95451.91;;;24.31;15.43
77288;BME280;66345;42.694;23.346;2023-03-14T08:35:03;95452.03;;;26.22;14.14
77288;BME280;66345;42.694;23.346;2023-03-14T08:37:31;95452.06;;;25.25;14.53
77288;BME280;66345;42.694;23.346;2023-03-14T08:39:56;95451.66;;;25.41;14.33
77288;BME280;66345;42.694;23.346;2023-03-14T08:42:22;95447.00;;;25.47;14.18
77288;BME280;66345;42.694;23.346;2023-03-14T08:44:47;95436.38;;;27.04;13.22
77288;BME280;66345;42.694;23.346;2023-03-14T08:47:13;95449.81;;;23.21;15.69
77288;BME280;66345;42.694;23.346;2023-03-14T08:49:39;95433.84;;;25.59;13.73
77288;BME280;66345;42.694;23.346;2023-03-14T08:52:04;95432.09;;;26.32;13.33
77288;BME280;66345;42.694;23.346;2023-03-14T08:54:31;95433.31;;;22.39;16.27
77288;BME280;66345;42.694;23.346;2023-03-14T08:56:57;95432.50;;;23.88;15.13
77288;BME280;66345;42.694;23.346;2023-03-14T08:59:23;95415.66;;;27.41;13.19
77288;BME280;66345;42.694;23.346;2023-03-14T09:01:49;95409.88;;;26.67;13.25
77288;BME280;66345;42.694;23.346;2023-03-14T09:04:15;95412.56;;;27.48;12.85
77288;BME280;66345;42.694;23.346;2023-03-14T09:06:41;95397.53;;;26.32;13.57
77288;BME280;66345;42.694;23.346;2023-03-14T09:09:06;95398.34;;;26.33;13.39
77288;BME280;66345;42.694;23.346;2023-03-14T09:11:32;95393.59;;;27.24;13.13
77288;BME280;66345;42.694;23.346;2023-03-14T09:13:57;95389.09;;;26.95;12.74
77288;BME280;66345;42.694;23.346;2023-03-14T09:16:23;95382.41;;;26.21;13.41
77288;BME280;66345;42.694;23.346;2023-03-14T09:18:49;95373.78;;;26.99;13.25
77288;BME280;66345;42.694;23.346;2023-03-14T09:21:14;95374.72;;;26.04;14.30
77288;BME280;66345;42.694;23.346;2023-03-14T09:23:41;95381.59;;;23.29;15.30
77288;BME280;66345;42.694;23.346;2023-03-14T09:26:07;95380.50;;;20.02;18.66
77288;BME280;66345;42.694;23.346;2023-03-14T09:28:32;95380.88;;;19.17;20.20
77288;BME280;66345;42.694;23.346;2023-03-14T09:30:58;95366.22;;;21.31;18.00
77288;BME280;66345;42.694;23.346;2023-03-14T09:33:23;95360.16;;;21.19;18.15
77288;BME280;66345;42.694;23.346;2023-03-14T09:35:49;95356.09;;;22.84;17.04
77288;BME280;66345;42.694;23.346;2023-03-14T09:38:15;95356.81;;;19.10;18.96
77288;BME280;66345;42.694;23.346;2023-03-14T09:40:41;95338.34;;;22.21;17.03
77288;BME280;66345;42.694;23.346;2023-03-14T09:43:12;95330.97;;;24.35;15.00
77288;BME280;66345;42.694;23.346;2023-03-14T09:45:40;95334.75;;;20.83;17.75
77288;BME280;66345;42.694;23.346;2023-03-14T09:48:16;95328.13;;;22.43;17.34
77288;BME280;66345;42.694;23.346;2023-03-14T09:50:51;95309.03;;;25.10;14.22
77288;BME280;66345;42.694;23.346;2023-03-14T09:53:27;95305.53;;;25.04;14.21
77288;BME280;66345;42.694;23.346;2023-03-14T09:55:54;95303.09;;;24.63;14.46
77288;BME280;66345;42.694;23.346;2023-03-14T09:58:24;95287.03;;;25.40;14.25
77288;BME280;66345;42.694;23.346;2023-03-14T10:00:52;95293.00;;;25.08;14.77
77288;BME280;66345;42.694;23.346;2023-03-14T10:05:49;95277.22;;;23.72;16.00
77288;BME280;66345;42.694;23.346;2023-03-14T10:08:15;95290.00;;;22.34;16.60
77288;BME280;66345;42.694;23.346;2023-03-14T10:10:41;95292.22;;;20.58;18.08
77288;BME280;66345;42.694;23.346;2023-03-14T10:15:35;95268.94;;;22.72;17.00
77288;BME280;66345;42.694;23.346;2023-03-14T10:18:03;95269.28;;;20.56;18.80
77288;BME280;66345;42.694;23.346;2023-03-14T10:23:05;95255.31;;;19.83;19.96
77288;BME280;66345;42.694;23.346;2023-03-14T10:25:33;95246.88;;;20.01;20.83
77288;BME280;66345;42.694;23.346;2023-03-14T10:27:59;95239.19;;;21.58;18.75
77288;BME280;66345;42.694;23.346;2023-03-14T10:30:38;95235.56;;;19.55;21.40
77288;BME280;66345;42.694;23.346;2023-03-14T10:33:11;95229.59;;;19.97;20.82
77288;BME280;66345;42.694;23.346;2023-03-14T10:35:44;95218.63;;;22.56;18.32
77288;BME280;66345;42.694;23.346;2023-03-14T10:38:15;95212.72;;;21.60;19.28
77288;BME280;66345;42.694;23.346;2023-03-14T10:40:49;95204.81;;;23.08;17.69
77288;BME280;66345;42.694;23.346;2023-03-14T10:43:19;95208.34;;;19.74;20.88
77288;BME280;66345;42.694;23.346;2023-03-14T10:45:55;95188.03;;;20.79;20.66
77288;BME280;66345;42.694;23.346;2023-03-14T10:48:24;95193.31;;;18.73;22.16
77288;BME280;66345;42.694;23.346;2023-03-14T10:51:08;95181.28;;;19.58;21.67
77288;BME280;66345;42.694;23.346;2023-03-14T10:53:58;95166.22;;;17.51;24.09
77288;BME280;66345;42.694;23.346;2023-03-14T10:56:26;95179.34;;;16.36;25.37
77288;BME280;66345;42.694;23.346;2023-03-14T10:58:58;95174.91;;;15.65;26.59
77288;BME280;66345;42.694;23.346;2023-03-14T11:07:14;95146.50;;;16.29;27.08
77288;BME280;66345;42.694;23.346;2023-03-14T11:15:34;95120.91;;;16.10;26.64
77288;BME280;66345;42.694;23.346;2023-03-14T11:20:55;95111.56;;;16.24;26.88
77288;BME280;66345;42.694;23.346;2023-03-14T11:23:39;95102.31;;;15.62;26.96
77288;BME280;66345;42.694;23.346;2023-03-14T11:26:16;95089.41;;;15.70;27.35
77288;BME280;66345;42.694;23.346;2023-03-14T11:28:49;95085.38;;;15.38;27.64
77288;BME280;66345;42.694;23.346;2023-03-14T11:31:19;95078.63;;;15.65;27.64
77288;BME280;66345;42.694;23.346;2023-03-14T11:36:27;95068.66;;;15.54;27.21
77288;BME280;66345;42.694;23.346;2023-03-14T11:38:58;95055.88;;;15.44;27.09
77288;BME280;66345;42.694;23.346;2023-03-14T11:41:30;95056.44;;;15.35;27.48
77288;BME280;66345;42.694;23.346;2023-03-14T11:43:58;95047.28;;;15.54;27.58
77288;BME280;66345;42.694;23.346;2023-03-14T11:46:31;95041.53;;;16.04;26.89
77288;BME280;66345;42.694;23.346;2023-03-14T11:51:50;95036.97;;;16.16;26.52
77288;BME280;66345;42.694;23.346;2023-03-14T11:54:39;95026.16;;;16.11;26.08
77288;BME280;66345;42.694;23.346;2023-03-14T11:57:17;95020.22;;;16.21;26.02
77288;BME280;66345;42.694;23.346;2023-03-14T11:59:58;95021.63;;;15.65;26.74
77288;BME280;66345;42.694;23.346;2023-03-14T12:10:59;94973.09;;;16.08;26.09
77288;BME280;66345;42.694;23.346;2023-03-14T12:13:36;94986.59;;;16.13;25.67
77288;BME280;66345;42.694;23.346;2023-03-14T12:16:06;94971.22;;;16.08;25.29
77288;BME280;66345;42.694;23.346;2023-03-14T12:18:36;94970.47;;;16.36;25.19
77288;BME280;66345;42.694;23.346;2023-03-14T12:21:09;94959.56;;;16.26;25.39
77288;BME280;66345;42.694;23.346;2023-03-14T12:23:57;94953.25;;;16.32;25.24
77288;BME280;66345;42.694;23.346;2023-03-14T12:26:25;94947.75;;;16.39;25.01
77288;BME280;66345;42.694;23.346;2023-03-14T12:29:09;94950.53;;;16.04;25.39
77288;BME280;66345;42.694;23.346;2023-03-14T12:31:41;94951.53;;;16.26;25.29
77288;BME280;66345;42.694;23.346;2023-03-14T12:39:19;94929.81;;;16.40;25.17
77288;BME280;66345;42.694;23.346;2023-03-14T12:41:52;94926.03;;;16.52;25.04
77288;BME280;66345;42.694;23.346;2023-03-14T12:49:50;94911.56;;;16.36;25.46
77288;BME280;66345;42.694;23.346;2023-03-14T12:52:21;94916.34;;;16.34;25.38
77288;BME280;66345;42.694;23.346;2023-03-14T12:57:48;94909.53;;;16.15;25.65
77288;BME280;66345;42.694;23.346;2023-03-14T13:00:22;94907.63;;;15.64;26.24
77288;BME280;66345;42.694;23.346;2023-03-14T13:02:49;94897.06;;;15.80;26.01
77288;BME280;66345;42.694;23.346;2023-03-14T13:05:22;94894.50;;;15.62;26.28
77288;BME280;66345;42.694;23.346;2023-03-14T13:10:25;94884.28;;;16.11;25.19
77288;BME280;66345;42.694;23.346;2023-03-14T13:12:57;94884.25;;;15.82;25.61
77288;BME280;66345;42.694;23.346;2023-03-14T13:15:33;94868.50;;;15.98;25.25
77288;BME280;66345;42.694;23.346;2023-03-14T13:18:11;94863.03;;;16.04;25.09
77288;BME280;66345;42.694;23.346;2023-03-14T13:20:44;94861.25;;;16.38;24.87
77288;BME280;66345;42.694;23.346;2023-03-14T13:23:28;94847.53;;;16.35;24.52
77288;BME280;66345;42.694;23.346;2023-03-14T13:25:54;94844.56;;;16.65;24.52
77288;BME280;66345;42.694;23.346;2023-03-14T13:28:20;94836.91;;;16.40;24.41
77288;BME280;66345;42.694;23.346;2023-03-14T13:30:48;94836.84;;;16.23;24.49
77288;BME280;66345;42.694;23.346;2023-03-14T13:33:22;94835.00;;;16.24;24.80
77288;BME280;66345;42.694;23.346;2023-03-14T13:38:31;94822.53;;;16.46;24.37
77288;BME280;66345;42.694;23.346;2023-03-14T13:40:59;94814.28;;;16.48;24.26
77288;BME280;66345;42.694;23.346;2023-03-14T13:43:33;94804.94;;;16.33;24.23
77288;BME280;66345;42.694;23.346;2023-03-14T13:46:05;94796.41;;;16.53;24.18
77288;BME280;66345;42.694;23.346;2023-03-14T13:48:43;94791.47;;;16.62;24.58
77288;BME280;66345;42.694;23.346;2023-03-14T13:51:12;94791.81;;;16.49;24.35
77288;BME280;66345;42.694;23.346;2023-03-14T13:53:52;94788.22;;;16.26;24.52
77288;BME280;66345;42.694;23.346;2023-03-14T13:56:20;94791.75;;;16.32;25.04